Time;durP1;ratioP1;P1;durP2;ratioP2;P2;SDS_P1;SDS_P2;PMS_P1;PMS_P2;Temp;Humidity;BMP_temperature;BMP_pressure;BME280_temperature;BME280_humidity;BME280_pressure;Samples;Min_cycle;Max_cycle;Signal;HPM_P1;HPM_P2
2022/08/15 00:00:00;;;;;;;5.70;5.20;;;;;30.50;100244.00;;;;5091916;28;20219;-76
2022/08/15 00:02:27;;;;;;;4.78;4.38;;;;;30.50;100228.00;;;;5090074;28;20691;-77
2022/08/15 00:04:56;;;;;;;5.25;4.43;;;;;30.50;100238.00;;;;5090652;28;20672;-77
2022/08/15 00:07:23;;;;;;;5.32;4.60;;;;;30.50;100235.00;;;;5091318;28;20678;-78
2022/08/15 00:09:50;;;;;;;5.07;4.57;;;;;30.50;100234.00;;;;5090205;28;20217;-77
2022/08/15 00:12:18;;;;;;;4.60;4.10;;;;;30.50;100226.00;;;;5090943;28;20205;-78
2022/08/15 00:14:45;;;;;;;11.90;5.15;;;;;30.50;100222.00;;;;5090813;28;20737;-77
2022/08/15 00:17:13;;;;;;;5.65;4.88;;;;;30.50;100225.00;;;;5085657;28;20198;-77
2022/08/15 00:19:44;;;;;;;5.07;4.57;;;;;30.50;100219.00;;;;5090535;28;20281;-77
2022/08/15 00:22:17;;;;;;;5.13;4.10;;;;;30.50;100223.00;;;;5089700;28;20217;-77
2022/08/15 00:24:45;;;;;;;5.15;4.65;;;;;30.50;100219.00;;;;5089724;28;20212;-77
2022/08/15 00:27:13;;;;;;;5.78;5.15;;;;;30.50;100218.00;;;;5089139;28;20613;-77
2022/08/15 00:29:41;;;;;;;5.22;4.72;;;;;30.50;100220.00;;;;5088626;28;20198;-78
2022/08/15 00:32:11;;;;;;;6.18;4.35;;;;;30.50;100213.00;;;;5089805;28;20586;-77
2022/08/15 00:34:39;;;;;;;4.82;4.43;;;;;30.50;100205.00;;;;5089832;28;20206;-77
2022/08/15 00:37:06;;;;;;;5.30;4.72;;;;;30.50;100205.00;;;;5090155;28;20735;-77
2022/08/15 00:39:35;;;;;;;5.35;4.85;;;;;30.50;100205.00;;;;5089808;28;20724;-78
2022/08/15 00:42:05;;;;;;;4.72;4.22;;;;;30.50;100207.00;;;;5089929;28;20217;-77
2022/08/15 00:44:40;;;;;;;5.43;4.07;;;;;30.50;100199.00;;;;5089994;28;20233;-78
2022/08/15 00:47:11;;;;;;;5.60;4.53;;;;;30.50;100201.00;;;;5089814;28;20756;-77
2022/08/15 00:49:39;;;;;;;5.18;4.68;;;;;30.50;100201.00;;;;5089970;28;20496;-77
2022/08/15 00:52:10;;;;;;;5.15;4.65;;;;;30.40;100200.00;;;;5090313;28;20535;-77
2022/08/15 00:54:43;;;;;;;4.68;4.28;;;;;30.40;100199.00;;;;5089790;28;20206;-77
2022/08/15 00:57:14;;;;;;;5.13;4.20;;;;;30.50;100185.00;;;;5089041;28;20205;-77
2022/08/15 00:59:47;;;;;;;4.82;4.07;;;;;30.40;100194.00;;;;5088333;28;20202;-78
2022/08/15 01:02:18;;;;;;;4.95;4.32;;;;;30.40;100192.00;;;;5090140;28;20258;-78
2022/08/15 01:04:46;;;;;;;4.68;4.28;;;;;30.50;100191.00;;;;5089972;28;20202;-78
2022/08/15 01:07:14;;;;;;;4.88;4.38;;;;;30.50;100189.00;;;;5089131;28;20229;-78
2022/08/15 01:09:43;;;;;;;5.38;4.88;;;;;30.40;100189.00;;;;5089564;28;20226;-78
2022/08/15 01:12:13;;;;;;;5.28;4.50;;;;;30.40;100189.00;;;;5089029;28;20216;-78
2022/08/15 01:14:43;;;;;;;5.70;3.95;;;;;30.40;100188.00;;;;5089663;28;20190;-78
2022/08/15 01:17:11;;;;;;;6.30;4.82;;;;;30.40;100182.00;;;;5088852;28;20318;-78
2022/08/15 01:19:41;;;;;;;5.10;4.60;;;;;30.40;100181.00;;;;5089371;28;20221;-78
2022/08/15 01:22:32;;;;;;;5.93;5.05;;;;;30.30;100182.00;;;;5089754;28;20202;-78
2022/08/15 01:25:05;;;;;;;6.68;4.35;;;;;30.40;100181.00;;;;5089889;28;20206;-79
2022/08/15 01:27:37;;;;;;;5.10;3.85;;;;;30.40;100182.00;;;;5073149;28;20230;-78
2022/08/15 01:30:08;;;;;;;6.43;3.95;;;;;30.40;100182.00;;;;5088197;28;20209;-78
2022/08/15 01:32:36;;;;;;;5.15;4.72;;;;;30.40;100187.00;;;;5088344;28;20206;-78
2022/08/15 01:35:05;;;;;;;6.03;3.83;;;;;30.40;100181.00;;;;5078970;28;20202;-78
2022/08/15 01:37:33;;;;;;;4.70;4.30;;;;;30.40;100182.00;;;;5079450;28;20190;-79
2022/08/15 01:40:05;;;;;;;5.50;4.50;;;;;30.40;100185.00;;;;5087983;28;20201;-78
2022/08/15 01:42:37;;;;;;;4.57;4.18;;;;;30.40;100179.00;;;;5087126;28;20217;-78
2022/08/15 01:45:08;;;;;;;4.10;3.67;;;;;30.40;100178.00;;;;5088215;28;20570;-78
2022/08/15 01:47:41;;;;;;;4.32;3.90;;;;;30.40;100197.00;;;;5088723;28;20551;-80
2022/08/15 01:50:12;;;;;;;5.05;4.43;;;;;30.40;100215.00;;;;5088566;28;20206;-79
2022/08/15 01:52:44;;;;;;;5.20;4.70;;;;;30.30;100215.00;;;;5088327;28;20195;-78
2022/08/15 01:55:15;;;;;;;4.78;4.38;;;;;30.30;100190.00;;;;5088592;28;20656;-79
2022/08/15 01:57:42;;;;;;;5.60;5.10;;;;;30.30;100210.00;;;;5089059;28;20205;-79
2022/08/15 02:00:11;;;;;;;5.68;5.07;;;;;30.20;100181.00;;;;5088703;28;20206;-78
2022/08/15 02:02:39;;;;;;;5.25;4.75;;;;;30.20;100183.00;;;;5088673;28;20856;-79
2022/08/15 02:05:07;;;;;;;4.47;4.07;;;;;30.20;100191.00;;;;5084393;28;20187;-80
2022/08/15 02:07:35;;;;;;;6.95;4.82;;;;;30.10;100194.00;;;;5072883;28;20229;-79
2022/08/15 02:10:02;;;;;;;4.82;4.35;;;;;30.10;100187.00;;;;5086885;28;20218;-78
2022/08/15 02:12:33;;;;;;;4.80;4.40;;;;;30.10;100192.00;;;;5082637;28;20202;-78
2022/08/15 02:15:05;;;;;;;5.10;4.60;;;;;30.10;100191.00;;;;5086664;28;20289;-79
2022/08/15 02:17:32;;;;;;;6.15;4.80;;;;;30.00;100178.00;;;;5072295;28;20244;-79
2022/08/15 02:20:00;;;;;;;4.60;4.15;;;;;30.00;100174.00;;;;5077845;28;20216;-79
2022/08/15 02:22:28;;;;;;;4.72;4.32;;;;;30.00;100172.00;;;;5081407;28;20740;-79
2022/08/15 02:24:58;;;;;;;5.35;4.15;;;;;30.00;100178.00;;;;5082301;28;20198;-80
2022/08/15 02:27:25;;;;;;;5.75;4.05;;;;;30.00;100170.00;;;;5087128;28;20238;-79
2022/08/15 02:29:54;;;;;;;4.63;4.20;;;;;29.90;100162.00;;;;5087602;28;20510;-79
2022/08/15 02:32:22;;;;;;;5.55;4.55;;;;;29.90;100164.00;;;;5088003;28;20210;-79
2022/08/15 02:34:49;;;;;;;4.50;4.10;;;;;29.90;100168.00;;;;5088083;28;20206;-79
2022/08/15 02:37:18;;;;;;;4.95;4.25;;;;;29.80;100162.00;;;;5081369;28;20572;-79
2022/08/15 02:39:47;;;;;;;4.68;4.20;;;;;29.80;100159.00;;;;5087348;28;20653;-79
2022/08/15 02:42:15;;;;;;;6.35;5.55;;;;;29.80;100147.00;;;;5087827;28;20703;-79
2022/08/15 02:44:48;;;;;;;5.03;4.53;;;;;29.80;100152.00;;;;5086842;28;20682;-79
2022/08/15 02:47:18;;;;;;;4.93;4.50;;;;;29.70;100158.00;;;;5086893;28;20236;-79
2022/08/15 02:49:47;;;;;;;5.70;4.30;;;;;29.70;100155.00;;;;5086388;28;20258;-79
2022/08/15 02:52:15;;;;;;;5.97;4.18;;;;;29.70;100148.00;;;;5087131;28;20198;-79
2022/08/15 02:54:42;;;;;;;4.90;4.40;;;;;29.60;100144.00;;;;5087281;28;20209;-78
2022/08/15 02:57:10;;;;;;;4.60;4.15;;;;;29.60;100145.00;;;;5088263;28;20202;-79
2022/08/15 02:59:37;;;;;;;6.78;5.03;;;;;29.50;100147.00;;;;5088790;28;20195;-79
2022/08/15 03:02:05;;;;;;;4.82;4.35;;;;;29.50;100147.00;;;;5088506;28;20205;-78
2022/08/15 03:04:35;;;;;;;4.97;4.57;;;;;29.40;100142.00;;;;5088432;28;20206;-79
2022/08/15 03:07:03;;;;;;;5.57;4.47;;;;;29.40;100143.00;;;;5087804;28;20230;-79
2022/08/15 03:09:30;;;;;;;5.10;4.60;;;;;29.40;100147.00;;;;5088033;28;20279;-79
2022/08/15 03:11:59;;;;;;;4.10;3.70;;;;;29.40;100148.00;;;;5088501;28;20202;-80
2022/08/15 03:14:27;;;;;;;4.72;4.32;;;;;29.30;100155.00;;;;5087856;28;20628;-80
2022/08/15 03:16:54;;;;;;;5.10;4.40;;;;;29.30;100151.00;;;;5088816;28;20202;-79
2022/08/15 03:19:25;;;;;;;5.30;4.75;;;;;29.30;100147.00;;;;5087677;28;20202;-79
2022/08/15 03:21:54;;;;;;;4.88;4.40;;;;;29.20;100148.00;;;;5088602;28;20202;-80
2022/08/15 03:24:23;;;;;;;6.05;5.43;;;;;29.20;100144.00;;;;5086918;28;20187;-79
2022/08/15 03:26:51;;;;;;;4.43;4.03;;;;;29.20;100142.00;;;;5079396;28;20235;-79
2022/08/15 03:29:19;;;;;;;4.82;4.43;;;;;29.10;100139.00;;;;5087579;28;20206;-79
2022/08/15 03:31:49;;;;;;;5.15;4.65;;;;;29.10;100138.00;;;;5088016;28;20194;-79
2022/08/15 03:34:19;;;;;;;5.45;4.50;;;;;29.10;100141.00;;;;5087391;28;20653;-79
2022/08/15 03:36:46;;;;;;;7.07;4.68;;;;;29.10;100131.00;;;;5087252;28;20664;-79
2022/08/15 03:39:16;;;;;;;4.78;4.35;;;;;29.00;100128.00;;;;5088212;28;20201;-80
2022/08/15 03:41:44;;;;;;;5.30;4.55;;;;;29.00;100149.00;;;;5087759;28;20204;-80
2022/08/15 03:44:11;;;;;;;5.25;4.25;;;;;29.00;100162.00;;;;5087570;28;20217;-82
2022/08/15 03:46:38;;;;;;;5.13;4.63;;;;;28.90;100170.00;;;;5076595;28;20230;-79
2022/08/15 03:49:06;;;;;;;5.03;4.53;;;;;28.80;100168.00;;;;5068168;28;20219;-79
2022/08/15 03:51:34;;;;;;;6.10;5.45;;;;;28.80;100163.00;;;;5066381;28;20269;-79
2022/08/15 03:54:01;;;;;;;5.93;5.40;;;;;28.80;100163.00;;;;5087300;28;20267;-79
2022/08/15 03:56:33;;;;;;;5.05;4.32;;;;;28.70;100160.00;;;;5086006;28;20207;-79
2022/08/15 03:59:01;;;;;;;5.10;4.60;;;;;28.70;100163.00;;;;5086874;28;20206;-79
2022/08/15 04:01:31;;;;;;;5.63;5.03;;;;;28.70;100163.00;;;;5085469;28;20534;-79
2022/08/15 04:03:59;;;;;;;5.93;5.43;;;;;28.70;100162.00;;;;5088058;28;20195;-80
2022/08/15 04:06:29;;;;;;;5.20;4.70;;;;;28.70;100153.00;;;;5090252;28;20225;-79
2022/08/15 04:08:58;;;;;;;6.18;4.45;;;;;28.70;100146.00;;;;5090950;28;20609;-79
2022/08/15 04:11:30;;;;;;;5.75;5.15;;;;;28.60;100147.00;;;;5091255;28;20929;-80
2022/08/15 04:13:59;;;;;;;5.13;4.72;;;;;28.60;100159.00;;;;5091383;28;20217;-80
2022/08/15 04:16:27;;;;;;;6.18;4.68;;;;;28.60;100154.00;;;;5091076;28;20205;-80
2022/08/15 04:18:54;;;;;;;5.95;5.32;;;;;28.60;100155.00;;;;5084192;28;20191;-79
2022/08/15 04:21:21;;;;;;;5.70;5.10;;;;;28.50;100156.00;;;;5088559;28;20213;-79
2022/08/15 04:23:50;;;;;;;5.65;5.05;;;;;28.50;100145.00;;;;5080636;28;20195;-79
2022/08/15 04:26:18;;;;;;;6.03;4.95;;;;;28.50;100152.00;;;;5070834;28;20268;-79
2022/08/15 04:28:46;;;;;;;6.28;5.45;;;;;28.50;100154.00;;;;5071389;28;20191;-79
2022/08/15 04:31:16;;;;;;;7.57;5.43;;;;;28.50;100161.00;;;;5090787;28;20210;-80
2022/08/15 04:33:44;;;;;;;5.28;4.88;;;;;28.50;100156.00;;;;5091207;28;20209;-81
2022/08/15 04:36:14;;;;;;;5.68;5.05;;;;;28.40;100156.00;;;;5090570;28;20271;-79
2022/08/15 04:38:43;;;;;;;10.15;6.15;;;;;28.40;100164.00;;;;5090635;28;20194;-80
2022/08/15 04:41:12;;;;;;;7.35;5.30;;;;;28.40;100169.00;;;;5090900;28;20209;-79
2022/08/15 04:43:42;;;;;;;6.97;6.03;;;;;28.40;100167.00;;;;5090450;28;20568;-80
2022/08/15 04:46:10;;;;;;;7.10;6.40;;;;;28.40;100158.00;;;;5082470;28;20191;-80
2022/08/15 04:48:39;;;;;;;6.63;6.03;;;;;28.40;100161.00;;;;5075009;28;20217;-81
2022/08/15 04:51:07;;;;;;;6.40;5.80;;;;;28.40;100156.00;;;;5085262;28;20199;-78
2022/08/15 04:53:36;;;;;;;9.43;6.18;;;;;28.40;100155.00;;;;5088162;28;20202;-79
2022/08/15 04:56:06;;;;;;;6.95;5.93;;;;;28.40;100168.00;;;;5090140;28;20503;-78
2022/08/15 04:58:33;;;;;;;6.10;5.50;;;;;28.40;100163.00;;;;5090105;28;20206;-78
2022/08/15 05:01:05;;;;;;;6.18;5.57;;;;;28.40;100163.00;;;;5090107;28;20206;-79
2022/08/15 05:03:33;;;;;;;7.47;6.65;;;;;28.40;100167.00;;;;5089583;28;20226;-79
2022/08/15 05:06:05;;;;;;;7.50;6.60;;;;;28.30;100165.00;;;;5089883;28;20640;-78
2022/08/15 05:08:35;;;;;;;8.38;6.95;;;;;28.30;100164.00;;;;5088856;28;20226;-79
2022/08/15 05:11:06;;;;;;;7.43;6.57;;;;;28.30;100166.00;;;;5087754;28;20645;-78
2022/08/15 05:13:36;;;;;;;8.38;6.72;;;;;28.30;100163.00;;;;5079269;28;20625;-79
2022/08/15 05:16:07;;;;;;;7.05;6.35;;;;;28.30;100165.00;;;;5088268;28;20206;-79
2022/08/15 05:18:36;;;;;;;6.45;5.85;;;;;28.30;100165.00;;;;5087355;28;20226;-80
2022/08/15 05:21:05;;;;;;;7.60;6.22;;;;;28.30;100168.00;;;;5087167;28;20194;-78
2022/08/15 05:23:33;;;;;;;5.75;5.18;;;;;28.40;100171.00;;;;5089106;28;20672;-81
2022/08/15 05:26:02;;;;;;;7.35;5.60;;;;;28.30;100162.00;;;;5087891;28;20221;-80
2022/08/15 05:28:30;;;;;;;5.95;5.25;;;;;28.30;100168.00;;;;5080988;28;20229;-80
2022/08/15 05:30:58;;;;;;;5.68;4.80;;;;;28.30;100173.00;;;;5087982;28;20209;-80
2022/08/15 05:33:29;;;;;;;5.43;4.93;;;;;28.30;100177.00;;;;5088544;28;20217;-81
2022/08/15 05:35:59;;;;;;;5.22;4.72;;;;;28.30;100178.00;;;;5089464;28;20194;-81
2022/08/15 05:38:32;;;;;;;6.43;5.35;;;;;28.30;100171.00;;;;5077006;28;20202;-80
2022/08/15 05:41:22;;;;;;;8.45;5.32;;;;;28.20;100177.00;;;;5068820;28;20206;-81
2022/08/15 05:44:00;;;;;;;7.25;5.07;;;;;28.30;100178.00;;;;5086063;28;20732;-80
2022/08/15 05:46:41;;;;;;;5.05;4.55;;;;;28.20;100194.00;;;;5088748;28;20202;-80
2022/08/15 05:49:23;;;;;;;7.22;4.78;;;;;28.30;100194.00;;;;5089144;28;20198;-80
2022/08/15 05:52:05;;;;;;;4.40;3.95;;;;;28.20;100194.00;;;;5089065;28;20668;-80
2022/08/15 05:54:47;;;;;;;4.40;4.10;;;;;28.20;100193.00;;;;5088754;28;20213;-81
2022/08/15 05:57:20;;;;;;;6.45;4.75;;;;;28.30;100188.00;;;;5088676;28;20202;-80
2022/08/15 05:59:51;;;;;;;4.72;3.50;;;;;28.30;100179.00;;;;5088631;28;20567;-80
2022/08/15 06:02:23;;;;;;;4.68;4.22;;;;;28.30;100185.00;;;;5087587;28;20217;-80
2022/08/15 06:04:58;;;;;;;4.20;3.80;;;;;28.40;100185.00;;;;5088904;28;20206;-80
2022/08/15 06:07:27;;;;;;;6.07;4.68;;;;;28.40;100187.00;;;;5088706;28;20233;-80
2022/08/15 06:10:00;;;;;;;3.72;3.42;;;;;28.50;100197.00;;;;5088403;28;20599;-80
2022/08/15 06:12:31;;;;;;;4.38;3.72;;;;;28.50;100204.00;;;;5088385;28;20232;-80
2022/08/15 06:15:04;;;;;;;4.53;4.13;;;;;28.60;100202.00;;;;5089324;28;20190;-80
2022/08/15 06:17:37;;;;;;;5.10;3.60;;;;;28.60;100206.00;;;;5087769;28;20541;-79
2022/08/15 06:20:08;;;;;;;5.70;4.22;;;;;28.70;100213.00;;;;5088931;28;20213;-80
2022/08/15 06:22:51;;;;;;;3.97;3.63;;;;;28.70;100215.00;;;;5087660;28;20233;-80
2022/08/15 06:25:26;;;;;;;4.80;3.78;;;;;28.70;100221.00;;;;5087920;28;20221;-80
2022/08/15 06:28:06;;;;;;;5.07;3.45;;;;;28.80;100220.00;;;;5072481;28;20799;-80
2022/08/15 06:30:42;;;;;;;4.00;3.35;;;;;28.80;100221.00;;;;5079568;28;20205;-79
2022/08/15 06:33:21;;;;;;;3.63;3.33;;;;;28.90;100221.00;;;;5084403;28;20198;-80
2022/08/15 06:35:58;;;;;;;3.33;3.03;;;;;29.00;100239.00;;;;5075226;28;20221;-79
2022/08/15 06:38:34;;;;;;;3.30;2.72;;;;;29.00;100234.00;;;;5067506;28;20202;-80
2022/08/15 06:41:07;;;;;;;3.13;2.80;;;;;29.10;100231.00;;;;5067940;28;20668;-81
2022/08/15 06:43:35;;;;;;;3.38;3.00;;;;;29.20;100233.00;;;;5083569;28;20210;-81
2022/08/15 06:46:04;;;;;;;3.38;2.70;;;;;29.30;100231.00;;;;5087866;28;20233;-80
2022/08/15 06:48:36;;;;;;;3.05;2.47;;;;;29.40;100243.00;;;;5077827;28;20280;-81
2022/08/15 06:51:06;;;;;;;3.10;2.80;;;;;29.40;100230.00;;;;5069987;28;20199;-80
2022/08/15 06:53:38;;;;;;;2.30;2.03;;;;;29.50;100233.00;;;;5087705;28;20198;-80
2022/08/15 06:56:13;;;;;;;3.55;2.00;;;;;29.60;100240.00;;;;5087927;28;20229;-81
2022/08/15 06:58:48;;;;;;;2.40;2.20;;;;;29.60;100244.00;;;;5087276;28;20205;-81
2022/08/15 07:01:25;;;;;;;2.13;1.92;;;;;29.70;100238.00;;;;5088417;28;20212;-80
2022/08/15 07:04:00;;;;;;;3.50;2.13;;;;;29.80;100235.00;;;;5087525;28;20213;-80
2022/08/15 07:06:35;;;;;;;2.13;1.88;;;;;29.80;100235.00;;;;5088434;28;20205;-81
2022/08/15 07:09:19;;;;;;;6.65;1.90;;;;;30.00;100226.00;;;;5087650;28;20245;-81
2022/08/15 07:11:55;;;;;;;2.28;1.75;;;;;30.00;100232.00;;;;5088379;28;20209;-81
2022/08/15 07:14:30;;;;;;;2.25;2.05;;;;;30.10;100226.00;;;;5087331;28;20573;-82
2022/08/15 07:17:04;;;;;;;2.28;1.83;;;;;30.10;100232.00;;;;5087227;28;20192;-80
2022/08/15 07:19:31;;;;;;;3.53;2.13;;;;;30.20;100229.00;;;;5087626;28;20258;-82
2022/08/15 07:21:59;;;;;;;3.60;1.73;;;;;30.20;100227.00;;;;5087967;28;20199;-80
2022/08/15 07:24:31;;;;;;;4.75;2.20;;;;;30.20;100225.00;;;;5087024;28;20206;-81
2022/08/15 07:27:14;;;;;;;2.15;1.95;;;;;30.10;100225.00;;;;5087853;28;20225;-80
2022/08/15 07:29:44;;;;;;;2.60;1.73;;;;;30.20;100226.00;;;;5087834;28;20432;-81
2022/08/15 07:32:15;;;;;;;2.15;1.95;;;;;30.20;100223.00;;;;5087798;28;20217;-80
2022/08/15 07:34:55;;;;;;;2.15;1.63;;;;;30.10;100216.00;;;;5086957;28;20201;-81
2022/08/15 07:37:24;;;;;;;3.22;2.15;;;;;30.20;100222.00;;;;5087558;28;20225;-80
2022/08/15 07:40:00;;;;;;;1.75;1.42;;;;;30.10;100222.00;;;;5091835;28;20203;-81
2022/08/15 07:42:28;;;;;;;3.83;1.85;;;;;30.20;100218.00;;;;5090775;28;20672;-81
2022/08/15 07:44:59;;;;;;;4.15;1.80;;;;;30.20;100217.00;;;;5091093;28;20288;-81
2022/08/15 07:47:29;;;;;;;2.60;1.83;;;;;30.20;100216.00;;;;5090494;28;20561;-81
2022/08/15 07:50:04;;;;;;;2.08;1.88;;;;;30.20;100211.00;;;;5090860;28;20199;-81
2022/08/15 07:52:32;;;;;;;2.33;2.08;;;;;30.20;100214.00;;;;5091178;28;20263;-82
2022/08/15 07:55:14;;;;;;;2.97;2.13;;;;;30.10;100225.00;;;;5091675;28;20194;-83
2022/08/15 07:57:57;;;;;;;3.72;2.22;;;;;30.20;100232.00;;;;5090575;28;20660;-81
2022/08/15 08:00:34;;;;;;;2.15;1.90;;;;;30.20;100233.00;;;;5090381;28;20194;-83
2022/08/15 08:03:09;;;;;;;2.30;2.10;;;;;30.20;100236.00;;;;5083913;28;20657;-83
2022/08/15 08:05:52;;;;;;;2.30;1.75;;;;;30.20;100238.00;;;;5070859;28;20198;-80
2022/08/15 08:08:22;;;;;;;2.10;1.90;;;;;30.20;100241.00;;;;5070217;28;20969;-82
2022/08/15 08:10:56;;;;;;;2.28;2.00;;;;;30.20;100247.00;;;;5071038;28;20289;-81
2022/08/15 08:13:37;;;;;;;4.78;1.90;;;;;30.20;100245.00;;;;5070069;28;20199;-81
2022/08/15 08:16:10;;;;;;;2.25;2.05;;;;;30.30;100248.00;;;;5072769;28;20790;-81
2022/08/15 08:18:47;;;;;;;4.07;3.10;;;;;30.30;100247.00;;;;5090137;28;20197;-81
2022/08/15 08:21:17;;;;;;;3.08;2.13;;;;;30.40;100239.00;;;;5091171;28;20194;-82
2022/08/15 08:23:48;;;;;;;2.83;2.55;;;;;30.40;100250.00;;;;5089751;28;20198;-82
2022/08/15 08:26:30;;;;;;;2.40;2.20;;;;;30.30;100250.00;;;;5090567;28;20222;-80
2022/08/15 08:29:07;;;;;;;5.03;2.45;;;;;30.40;100247.00;;;;5070612;28;20222;-80
2022/08/15 08:31:42;;;;;;;5.20;2.45;;;;;30.40;100244.00;;;;5069510;28;20203;-82
2022/08/15 08:34:19;;;;;;;2.58;2.05;;;;;30.40;100229.00;;;;5081241;28;20197;-82
2022/08/15 08:36:56;;;;;;;2.45;2.22;;;;;30.40;100235.00;;;;5090441;28;20190;-81
2022/08/15 08:39:40;;;;;;;2.75;2.10;;;;;30.40;100234.00;;;;5088605;28;20209;-82
2022/08/15 08:42:16;;;;;;;3.42;2.30;;;;;30.40;100236.00;;;;5069431;28;20620;-81
2022/08/15 08:44:58;;;;;;;2.92;2.40;;;;;30.40;100242.00;;;;5070202;28;20226;-81
2022/08/15 08:47:36;;;;;;;4.22;2.45;;;;;30.40;100246.00;;;;5069956;28;20560;-81
2022/08/15 08:50:18;;;;;;;3.75;2.55;;;;;30.50;100254.00;;;;5076241;28;20202;-80
2022/08/15 08:52:54;;;;;;;3.13;2.70;;;;;30.50;100259.00;;;;5090230;28;20668;-82
2022/08/15 08:55:26;;;;;;;3.80;2.83;;;;;30.50;100254.00;;;;5089438;28;20202;-81
2022/08/15 08:57:58;;;;;;;4.15;2.88;;;;;30.50;100255.00;;;;5089771;28;20194;-81
2022/08/15 09:00:36;;;;;;;2.60;2.40;;;;;30.50;100254.00;;;;5089691;28;20198;-81
2022/08/15 09:03:14;;;;;;;3.25;2.50;;;;;30.50;100258.00;;;;5089547;28;20191;-81
2022/08/15 09:05:51;;;;;;;6.32;2.58;;;;;30.60;100259.00;;;;5089089;28;20225;-81
2022/08/15 09:08:24;;;;;;;3.38;2.67;;;;;30.60;100257.00;;;;5089768;28;20234;-81
2022/08/15 09:10:56;;;;;;;3.90;3.00;;;;;30.60;100253.00;;;;5089854;28;20205;-82
2022/08/15 09:13:37;;;;;;;3.08;2.75;;;;;30.60;100265.00;;;;5089245;28;20213;-80
2022/08/15 09:16:14;;;;;;;4.68;2.78;;;;;30.60;100267.00;;;;5090064;28;20198;-80
2022/08/15 09:18:46;;;;;;;3.90;2.40;;;;;30.60;100264.00;;;;5088758;28;20200;-81
2022/08/15 09:21:14;;;;;;;3.60;3.17;;;;;30.70;100264.00;;;;5089457;28;20566;-82
2022/08/15 09:23:44;;;;;;;4.70;3.05;;;;;30.80;100267.00;;;;5089740;28;20205;-81
2022/08/15 09:26:17;;;;;;;3.35;3.05;;;;;30.80;100262.00;;;;5089629;28;20226;-81
2022/08/15 09:28:47;;;;;;;3.00;2.70;;;;;30.80;100261.00;;;;5069599;28;20218;-81
2022/08/15 09:31:19;;;;;;;3.97;3.10;;;;;30.90;100270.00;;;;5069295;28;20198;-80
2022/08/15 09:34:18;;;;;;;4.20;2.72;;;;;31.00;100265.00;;;;5069344;28;20199;-81
2022/08/15 09:37:14;;;;;;;3.08;2.78;;;;;31.20;100266.00;;;;5068979;28;20203;-81
2022/08/15 09:40:29;;;;;;;6.20;2.63;;;;;31.30;100266.00;;;;5068425;28;20660;-82
2022/08/15 09:43:18;;;;;;;4.57;2.72;;;;;31.40;100264.00;;;;5087284;28;20245;-81
2022/08/15 09:46:02;;;;;;;4.38;3.22;;;;;31.50;100266.00;;;;5088667;28;20202;-80
2022/08/15 09:48:47;;;;;;;3.50;3.17;;;;;31.50;100266.00;;;;5089023;28;20599;-79
2022/08/15 09:52:09;;;;;;;3.58;3.28;;;;;31.40;100274.00;;;;5088891;28;20656;-80
2022/08/15 09:54:45;;;;;;;4.00;3.38;;;;;31.50;100273.00;;;;5088009;28;20203;-82
2022/08/15 09:57:30;;;;;;;3.70;3.40;;;;;31.50;100274.00;;;;5088822;28;20682;-81
2022/08/15 10:00:00;;;;;;;3.35;3.00;;;;;31.60;100281.00;;;;5088530;28;20206;-80
2022/08/15 10:02:32;;;;;;;4.40;3.75;;;;;31.60;100278.00;;;;5088186;28;20193;-81
2022/08/15 10:05:23;;;;;;;6.05;4.18;;;;;31.50;100277.00;;;;5089167;28;20194;-80
2022/08/15 10:07:52;;;;;;;4.20;3.78;;;;;31.60;100283.00;;;;5088461;28;20221;-79
2022/08/15 10:10:45;;;;;;;7.38;4.05;;;;;31.60;100283.00;;;;5088440;28;20587;-78
2022/08/15 10:13:26;;;;;;;4.00;3.63;;;;;31.60;100286.00;;;;5067896;28;20198;-78
2022/08/15 10:15:55;;;;;;;4.88;4.38;;;;;31.60;100281.00;;;;5077059;28;20214;-79
2022/08/15 10:18:59;;;;;;;4.82;3.80;;;;;31.40;100283.00;;;;5088142;28;20209;-79
2022/08/15 10:21:39;;;;;;;4.43;3.72;;;;;31.40;100285.00;;;;5087598;28;20209;-78
2022/08/15 10:24:22;;;;;;;6.30;4.22;;;;;31.40;100280.00;;;;5088749;28;20198;-79
2022/08/15 10:27:22;;;;;;;7.40;4.78;;;;;31.30;100283.00;;;;5085789;28;20230;-79
2022/08/15 10:29:52;;;;;;;4.78;3.58;;;;;31.40;100288.00;;;;5067798;28;20231;-81
2022/08/15 10:32:24;;;;;;;9.00;3.80;;;;;31.30;100291.00;;;;5072085;28;20226;-81
2022/08/15 10:34:59;;;;;;;4.13;3.72;;;;;31.30;100291.00;;;;5088340;28;20194;-81
2022/08/15 10:37:32;;;;;;;5.15;3.92;;;;;31.30;100290.00;;;;5087811;28;20202;-81
2022/08/15 10:40:34;;;;;;;5.95;4.30;;;;;31.10;100295.00;;;;5088378;28;20198;-81
2022/08/15 10:43:20;;;;;;;5.32;4.45;;;;;31.20;100292.00;;;;5044897;28;20559;-82
2022/08/15 10:45:51;;;;;;;6.50;4.80;;;;;31.20;100291.00;;;;5088796;28;20209;-80
2022/08/15 10:48:34;;;;;;;4.75;3.90;;;;;31.10;100293.00;;;;5087986;28;20205;-80
2022/08/15 10:51:06;;;;;;;4.97;4.53;;;;;31.10;100290.00;;;;5088308;28;20258;-81
2022/08/15 10:53:47;;;;;;;7.65;5.18;;;;;31.00;100295.00;;;;5088498;28;20576;-80
2022/08/15 10:56:17;;;;;;;7.15;4.70;;;;;31.10;100302.00;;;;5088759;28;20205;-80
2022/08/15 10:58:45;;;;;;;5.15;4.25;;;;;31.10;100299.00;;;;5088145;28;20199;-80
2022/08/15 11:01:20;;;;;;;5.20;4.53;;;;;31.10;100296.00;;;;5088063;28;20194;-80
2022/08/15 11:03:53;;;;;;;11.10;4.70;;;;;31.00;100308.00;;;;5088515;28;20215;-81
2022/08/15 11:06:23;;;;;;;7.10;4.97;;;;;31.00;100304.00;;;;5088050;28;20339;-80
2022/08/15 11:08:55;;;;;;;5.13;4.05;;;;;31.00;100308.00;;;;5084653;28;20241;-80
2022/08/15 11:11:25;;;;;;;4.32;3.92;;;;;31.00;100308.00;;;;5067851;28;20202;-80
2022/08/15 11:13:55;;;;;;;6.32;4.07;;;;;31.00;100310.00;;;;5070595;28;20199;-80
2022/08/15 11:16:31;;;;;;;8.80;4.88;;;;;30.90;100310.00;;;;5072073;28;20214;-80
2022/08/15 11:19:02;;;;;;;5.25;4.75;;;;;31.00;100300.00;;;;5071169;28;20206;-81
2022/08/15 11:21:37;;;;;;;6.32;4.50;;;;;30.90;100303.00;;;;5071828;28;20202;-80
2022/08/15 11:24:09;;;;;;;9.93;4.97;;;;;30.90;100309.00;;;;5082718;28;20225;-81
2022/08/15 11:26:39;;;;;;;4.90;4.40;;;;;30.90;100310.00;;;;5091887;28;20321;-81
2022/08/15 11:29:18;;;;;;;7.78;5.03;;;;;30.80;100309.00;;;;5072068;28;20219;-80
2022/08/15 11:31:53;;;;;;;6.32;4.85;;;;;30.80;100315.00;;;;5072026;28;20198;-80
2022/08/15 11:34:23;;;;;;;5.82;4.80;;;;;30.90;100322.00;;;;5070985;28;20210;-81
2022/08/15 11:36:52;;;;;;;8.45;5.75;;;;;30.90;100320.00;;;;5071687;28;20847;-79
2022/08/15 11:39:21;;;;;;;5.20;4.18;;;;;30.80;100325.00;;;;5071281;28;20202;-81
2022/08/15 11:41:51;;;;;;;8.90;4.93;;;;;30.80;100325.00;;;;5089618;28;20201;-80
2022/08/15 11:44:20;;;;;;;6.97;5.03;;;;;30.80;100325.00;;;;5091033;28;20194;-81
2022/08/15 11:46:48;;;;;;;4.80;4.35;;;;;30.80;100338.00;;;;5091147;28;20201;-81
2022/08/15 11:49:30;;;;;;;5.47;4.13;;;;;30.70;100331.00;;;;5091388;28;20225;-82
2022/08/15 11:52:06;;;;;;;3.70;3.20;;;;;30.80;100324.00;;;;5091547;28;20195;-80
2022/08/15 11:54:35;;;;;;;6.45;4.28;;;;;30.80;100324.00;;;;5090349;28;20194;-80
2022/08/15 11:57:05;;;;;;;5.43;3.45;;;;;30.80;100320.00;;;;5091069;28;20574;-81
2022/08/15 11:59:35;;;;;;;4.53;4.05;;;;;30.80;100314.00;;;;5090547;28;20225;-81
2022/08/15 12:02:07;;;;;;;5.50;3.95;;;;;30.70;100313.00;;;;5091565;28;20579;-81
2022/08/15 12:04:38;;;;;;;4.72;3.40;;;;;30.70;100318.00;;;;5090358;28;20205;-80
2022/08/15 12:07:15;;;;;;;4.05;3.50;;;;;30.80;100321.00;;;;5090906;28;20752;-79
2022/08/15 12:09:55;;;;;;;3.72;3.33;;;;;30.70;100331.00;;;;5090311;28;20488;-79
2022/08/15 12:12:32;;;;;;;4.65;3.78;;;;;30.70;100331.00;;;;5090841;28;20552;-79
2022/08/15 12:15:07;;;;;;;4.18;3.78;;;;;30.70;100331.00;;;;5091360;28;20206;-79
2022/08/15 12:17:34;;;;;;;3.90;3.05;;;;;30.80;100335.00;;;;5090656;28;20202;-79
2022/08/15 12:20:04;;;;;;;5.13;3.70;;;;;30.80;100331.00;;;;5090087;28;20198;-79
2022/08/15 12:22:34;;;;;;;6.07;3.38;;;;;30.80;100333.00;;;;5090966;28;20252;-79
2022/08/15 12:25:05;;;;;;;5.40;3.70;;;;;30.80;100342.00;;;;5089326;28;20575;-80
2022/08/15 12:27:35;;;;;;;4.93;3.63;;;;;30.90;100337.00;;;;5082795;28;20337;-80
2022/08/15 12:30:04;;;;;;;5.95;3.40;;;;;30.90;100341.00;;;;5074570;28;20218;-80
2022/08/15 12:32:32;;;;;;;4.05;3.50;;;;;30.90;100345.00;;;;5089482;28;20206;-79
2022/08/15 12:35:01;;;;;;;5.32;3.15;;;;;30.90;100342.00;;;;5090451;28;20209;-79